sensor_id;sensor_type;location;lat;lon;timestamp;P1;durP1;ratioP1;P2;durP2;ratioP2
71606;SDS011;60641;53.556;9.914;2022-11-25T00:00:28;13.50;;;7.10;;
71606;SDS011;60641;53.556;9.914;2022-11-25T00:03:14;15.60;;;7.40;;
71606;SDS011;60641;53.556;9.914;2022-11-25T00:05:41;16.90;;;6.90;;
71606;SDS011;60641;53.556;9.914;2022-11-25T00:08:07;14.60;;;7.20;;
71606;SDS011;60641;53.556;9.914;2022-11-25T00:10:34;12.80;;;6.90;;
71606;SDS011;60641;53.556;9.914;2022-11-25T00:13:01;12.10;;;6.10;;
71606;SDS011;60641;53.556;9.914;2022-11-25T00:15:27;12.40;;;6.50;;
71606;SDS011;60641;53.556;9.914;2022-11-25T00:17:54;13.40;;;6.60;;
71606;SDS011;60641;53.556;9.914;2022-11-25T00:20:20;15.40;;;7.30;;
71606;SDS011;60641;53.556;9.914;2022-11-25T00:22:47;11.40;;;5.30;;
71606;SDS011;60641;53.556;9.914;2022-11-25T00:25:13;12.20;;;6.00;;
71606;SDS011;60641;53.556;9.914;2022-11-25T00:27:40;14.30;;;6.40;;
71606;SDS011;60641;53.556;9.914;2022-11-25T00:30:07;12.40;;;5.90;;
71606;SDS011;60641;53.556;9.914;2022-11-25T00:32:34;14.30;;;6.50;;
71606;SDS011;60641;53.556;9.914;2022-11-25T00:35:00;11.70;;;5.30;;
71606;SDS011;60641;53.556;9.914;2022-11-25T00:37:26;12.60;;;6.00;;
71606;SDS011;60641;53.556;9.914;2022-11-25T00:39:53;13.20;;;6.60;;
71606;SDS011;60641;53.556;9.914;2022-11-25T00:42:19;13.10;;;6.20;;
71606;SDS011;60641;53.556;9.914;2022-11-25T00:45:04;12.70;;;5.50;;
71606;SDS011;60641;53.556;9.914;2022-11-25T00:47:31;8.70;;;4.40;;
71606;SDS011;60641;53.556;9.914;2022-11-25T00:49:57;12.70;;;6.10;;
71606;SDS011;60641;53.556;9.914;2022-11-25T00:52:25;15.00;;;6.30;;
71606;SDS011;60641;53.556;9.914;2022-11-25T00:54:52;13.60;;;6.60;;
71606;SDS011;60641;53.556;9.914;2022-11-25T00:57:20;14.10;;;7.20;;
71606;SDS011;60641;53.556;9.914;2022-11-25T00:59:47;14.80;;;6.50;;
71606;SDS011;60641;53.556;9.914;2022-11-25T01:02:14;14.30;;;6.50;;
71606;SDS011;60641;53.556;9.914;2022-11-25T01:04:41;12.30;;;6.30;;
71606;SDS011;60641;53.556;9.914;2022-11-25T01:07:08;12.10;;;5.90;;
71606;SDS011;60641;53.556;9.914;2022-11-25T01:09:35;13.50;;;6.90;;
71606;SDS011;60641;53.556;9.914;2022-11-25T01:12:03;8.80;;;3.90;;
71606;SDS011;60641;53.556;9.914;2022-11-25T01:14:30;13.00;;;6.70;;
71606;SDS011;60641;53.556;9.914;2022-11-25T01:16:56;13.30;;;6.50;;
71606;SDS011;60641;53.556;9.914;2022-11-25T01:19:23;14.10;;;6.50;;
71606;SDS011;60641;53.556;9.914;2022-11-25T01:21:49;12.00;;;5.90;;
71606;SDS011;60641;53.556;9.914;2022-11-25T01:24:16;15.00;;;6.80;;
71606;SDS011;60641;53.556;9.914;2022-11-25T01:26:43;12.50;;;6.60;;
71606;SDS011;60641;53.556;9.914;2022-11-25T01:29:13;13.00;;;6.50;;
71606;SDS011;60641;53.556;9.914;2022-11-25T01:31:42;12.20;;;6.40;;
71606;SDS011;60641;53.556;9.914;2022-11-25T01:34:19;13.10;;;6.20;;
71606;SDS011;60641;53.556;9.914;2022-11-25T01:36:47;13.30;;;6.20;;
71606;SDS011;60641;53.556;9.914;2022-11-25T01:39:17;13.30;;;6.40;;
71606;SDS011;60641;53.556;9.914;2022-11-25T01:41:45;11.90;;;6.40;;
71606;SDS011;60641;53.556;9.914;2022-11-25T01:44:20;13.40;;;6.80;;
71606;SDS011;60641;53.556;9.914;2022-11-25T01:46:49;13.00;;;6.70;;
71606;SDS011;60641;53.556;9.914;2022-11-25T01:49:21;11.90;;;6.30;;
71606;SDS011;60641;53.556;9.914;2022-11-25T01:51:50;15.10;;;7.30;;
71606;SDS011;60641;53.556;9.914;2022-11-25T01:54:24;12.60;;;6.40;;
71606;SDS011;60641;53.556;9.914;2022-11-25T01:56:58;13.10;;;6.50;;
71606;SDS011;60641;53.556;9.914;2022-11-25T01:59:26;12.20;;;6.20;;
71606;SDS011;60641;53.556;9.914;2022-11-25T02:01:53;14.20;;;6.30;;
71606;SDS011;60641;53.556;9.914;2022-11-25T02:04:20;12.60;;;6.60;;
71606;SDS011;60641;53.556;9.914;2022-11-25T02:06:53;12.90;;;6.70;;
71606;SDS011;60641;53.556;9.914;2022-11-25T02:09:23;13.60;;;6.50;;
71606;SDS011;60641;53.556;9.914;2022-11-25T02:11:50;12.70;;;7.00;;
71606;SDS011;60641;53.556;9.914;2022-11-25T02:14:17;15.30;;;7.40;;
71606;SDS011;60641;53.556;9.914;2022-11-25T02:16:43;14.90;;;8.00;;
71606;SDS011;60641;53.556;9.914;2022-11-25T02:19:21;14.40;;;7.00;;
71606;SDS011;60641;53.556;9.914;2022-11-25T02:21:51;13.50;;;6.80;;
71606;SDS011;60641;53.556;9.914;2022-11-25T02:24:24;13.80;;;7.00;;
71606;SDS011;60641;53.556;9.914;2022-11-25T02:26:57;13.90;;;7.50;;
71606;SDS011;60641;53.556;9.914;2022-11-25T02:29:24;16.20;;;7.30;;
71606;SDS011;60641;53.556;9.914;2022-11-25T02:31:51;14.00;;;7.90;;
71606;SDS011;60641;53.556;9.914;2022-11-25T02:34:17;16.90;;;7.60;;
71606;SDS011;60641;53.556;9.914;2022-11-25T02:36:44;13.60;;;7.20;;
71606;SDS011;60641;53.556;9.914;2022-11-25T02:39:10;13.10;;;6.50;;
71606;SDS011;60641;53.556;9.914;2022-11-25T02:41:44;14.50;;;7.50;;
71606;SDS011;60641;53.556;9.914;2022-11-25T02:44:13;14.70;;;7.20;;
71606;SDS011;60641;53.556;9.914;2022-11-25T02:46:39;13.10;;;7.00;;
71606;SDS011;60641;53.556;9.914;2022-11-25T02:49:06;14.50;;;7.20;;
71606;SDS011;60641;53.556;9.914;2022-11-25T02:51:33;16.70;;;7.60;;
71606;SDS011;60641;53.556;9.914;2022-11-25T02:53:59;16.70;;;8.10;;
71606;SDS011;60641;53.556;9.914;2022-11-25T02:56:31;17.30;;;8.80;;
71606;SDS011;60641;53.556;9.914;2022-11-25T02:58:59;18.80;;;9.20;;
71606;SDS011;60641;53.556;9.914;2022-11-25T03:01:26;15.40;;;7.70;;
71606;SDS011;60641;53.556;9.914;2022-11-25T03:03:53;17.70;;;8.30;;
71606;SDS011;60641;53.556;9.914;2022-11-25T03:06:19;15.50;;;7.90;;
71606;SDS011;60641;53.556;9.914;2022-11-25T03:08:46;15.50;;;7.70;;
71606;SDS011;60641;53.556;9.914;2022-11-25T03:11:12;15.20;;;7.60;;
71606;SDS011;60641;53.556;9.914;2022-11-25T03:13:39;15.90;;;7.40;;
71606;SDS011;60641;53.556;9.914;2022-11-25T03:16:05;16.40;;;8.50;;
71606;SDS011;60641;53.556;9.914;2022-11-25T03:18:32;17.00;;;7.80;;
71606;SDS011;60641;53.556;9.914;2022-11-25T03:20:59;14.30;;;7.80;;
71606;SDS011;60641;53.556;9.914;2022-11-25T03:23:26;14.10;;;7.40;;
71606;SDS011;60641;53.556;9.914;2022-11-25T03:25:53;16.70;;;8.00;;
71606;SDS011;60641;53.556;9.914;2022-11-25T03:28:19;13.50;;;7.20;;
71606;SDS011;60641;53.556;9.914;2022-11-25T03:30:46;15.00;;;7.20;;
71606;SDS011;60641;53.556;9.914;2022-11-25T03:33:12;16.00;;;7.10;;
71606;SDS011;60641;53.556;9.914;2022-11-25T03:35:39;15.10;;;7.70;;
71606;SDS011;60641;53.556;9.914;2022-11-25T03:38:05;17.50;;;8.00;;
71606;SDS011;60641;53.556;9.914;2022-11-25T03:40:32;17.40;;;7.20;;
71606;SDS011;60641;53.556;9.914;2022-11-25T03:42:58;14.70;;;7.70;;
71606;SDS011;60641;53.556;9.914;2022-11-25T03:45:25;14.30;;;7.00;;
71606;SDS011;60641;53.556;9.914;2022-11-25T03:47:51;14.80;;;7.40;;
71606;SDS011;60641;53.556;9.914;2022-11-25T03:50:17;16.20;;;7.00;;
71606;SDS011;60641;53.556;9.914;2022-11-25T03:52:44;16.80;;;7.80;;
71606;SDS011;60641;53.556;9.914;2022-11-25T03:55:10;15.40;;;7.50;;
71606;SDS011;60641;53.556;9.914;2022-11-25T03:57:38;15.80;;;7.70;;
71606;SDS011;60641;53.556;9.914;2022-11-25T04:00:05;16.40;;;7.50;;
71606;SDS011;60641;53.556;9.914;2022-11-25T04:02:32;15.40;;;7.00;;
71606;SDS011;60641;53.556;9.914;2022-11-25T04:04:59;13.80;;;5.40;;
71606;SDS011;60641;53.556;9.914;2022-11-25T04:07:25;16.40;;;6.70;;
71606;SDS011;60641;53.556;9.914;2022-11-25T04:09:51;14.50;;;6.70;;
71606;SDS011;60641;53.556;9.914;2022-11-25T04:12:18;14.30;;;7.30;;
71606;SDS011;60641;53.556;9.914;2022-11-25T04:15:03;14.20;;;6.10;;
71606;SDS011;60641;53.556;9.914;2022-11-25T04:17:30;10.40;;;5.10;;
71606;SDS011;60641;53.556;9.914;2022-11-25T04:19:56;16.10;;;7.10;;
71606;SDS011;60641;53.556;9.914;2022-11-25T04:22:22;13.40;;;6.00;;
71606;SDS011;60641;53.556;9.914;2022-11-25T04:24:49;15.60;;;6.70;;
71606;SDS011;60641;53.556;9.914;2022-11-25T04:27:15;13.60;;;6.30;;
71606;SDS011;60641;53.556;9.914;2022-11-25T04:29:42;16.70;;;7.30;;
71606;SDS011;60641;53.556;9.914;2022-11-25T04:32:08;15.90;;;6.60;;
71606;SDS011;60641;53.556;9.914;2022-11-25T04:34:35;13.90;;;6.70;;
71606;SDS011;60641;53.556;9.914;2022-11-25T04:37:01;14.50;;;6.60;;
71606;SDS011;60641;53.556;9.914;2022-11-25T04:39:28;18.20;;;6.90;;
71606;SDS011;60641;53.556;9.914;2022-11-25T04:41:54;12.70;;;6.00;;
71606;SDS011;60641;53.556;9.914;2022-11-25T04:44:41;15.10;;;6.50;;
71606;SDS011;60641;53.556;9.914;2022-11-25T04:47:07;15.60;;;6.80;;
71606;SDS011;60641;53.556;9.914;2022-11-25T04:49:34;14.50;;;6.00;;
71606;SDS011;60641;53.556;9.914;2022-11-25T04:52:00;14.70;;;6.80;;
71606;SDS011;60641;53.556;9.914;2022-11-25T04:54:27;14.80;;;6.70;;
71606;SDS011;60641;53.556;9.914;2022-11-25T04:56:53;12.70;;;5.30;;
71606;SDS011;60641;53.556;9.914;2022-11-25T04:59:19;17.50;;;6.40;;
71606;SDS011;60641;53.556;9.914;2022-11-25T05:02:26;13.00;;;6.30;;
71606;SDS011;60641;53.556;9.914;2022-11-25T05:04:53;14.10;;;6.60;;
71606;SDS011;60641;53.556;9.914;2022-11-25T05:07:21;13.10;;;6.60;;
71606;SDS011;60641;53.556;9.914;2022-11-25T05:09:49;17.30;;;6.50;;
71606;SDS011;60641;53.556;9.914;2022-11-25T05:12:17;16.10;;;6.30;;
71606;SDS011;60641;53.556;9.914;2022-11-25T05:14:46;14.00;;;6.20;;
71606;SDS011;60641;53.556;9.914;2022-11-25T05:17:14;13.80;;;6.10;;
71606;SDS011;60641;53.556;9.914;2022-11-25T05:19:41;14.20;;;6.00;;
71606;SDS011;60641;53.556;9.914;2022-11-25T05:22:18;17.80;;;6.40;;
71606;SDS011;60641;53.556;9.914;2022-11-25T05:24:46;13.50;;;6.20;;
71606;SDS011;60641;53.556;9.914;2022-11-25T05:27:12;13.40;;;6.20;;
71606;SDS011;60641;53.556;9.914;2022-11-25T05:29:39;17.70;;;6.60;;
71606;SDS011;60641;53.556;9.914;2022-11-25T05:32:05;12.70;;;6.00;;
71606;SDS011;60641;53.556;9.914;2022-11-25T05:34:33;14.30;;;6.50;;
71606;SDS011;60641;53.556;9.914;2022-11-25T05:37:00;12.40;;;5.60;;
71606;SDS011;60641;53.556;9.914;2022-11-25T05:39:26;14.50;;;5.30;;
71606;SDS011;60641;53.556;9.914;2022-11-25T05:41:53;14.60;;;5.50;;
71606;SDS011;60641;53.556;9.914;2022-11-25T05:44:19;13.00;;;5.30;;
71606;SDS011;60641;53.556;9.914;2022-11-25T05:46:46;14.30;;;5.70;;
71606;SDS011;60641;53.556;9.914;2022-11-25T05:49:14;14.00;;;5.90;;
71606;SDS011;60641;53.556;9.914;2022-11-25T05:51:41;15.20;;;6.30;;
71606;SDS011;60641;53.556;9.914;2022-11-25T05:54:08;12.40;;;4.90;;
71606;SDS011;60641;53.556;9.914;2022-11-25T05:56:34;14.50;;;5.90;;
71606;SDS011;60641;53.556;9.914;2022-11-25T05:59:01;13.20;;;5.60;;
71606;SDS011;60641;53.556;9.914;2022-11-25T06:01:28;18.00;;;8.20;;
71606;SDS011;60641;53.556;9.914;2022-11-25T06:03:58;13.00;;;6.10;;
71606;SDS011;60641;53.556;9.914;2022-11-25T06:06:25;12.40;;;6.00;;
71606;SDS011;60641;53.556;9.914;2022-11-25T06:08:51;13.30;;;6.00;;
71606;SDS011;60641;53.556;9.914;2022-11-25T06:11:18;13.90;;;6.20;;
71606;SDS011;60641;53.556;9.914;2022-11-25T06:13:44;17.00;;;7.30;;
71606;SDS011;60641;53.556;9.914;2022-11-25T06:16:12;15.70;;;6.40;;
71606;SDS011;60641;53.556;9.914;2022-11-25T06:18:41;13.10;;;5.50;;
71606;SDS011;60641;53.556;9.914;2022-11-25T06:21:08;15.70;;;6.40;;
71606;SDS011;60641;53.556;9.914;2022-11-25T06:23:35;15.90;;;6.50;;
71606;SDS011;60641;53.556;9.914;2022-11-25T06:26:03;14.60;;;5.90;;
71606;SDS011;60641;53.556;9.914;2022-11-25T06:28:30;13.80;;;5.70;;
71606;SDS011;60641;53.556;9.914;2022-11-25T06:31:02;14.40;;;6.20;;
71606;SDS011;60641;53.556;9.914;2022-11-25T06:33:30;12.80;;;5.80;;
71606;SDS011;60641;53.556;9.914;2022-11-25T06:35:57;13.10;;;5.30;;
71606;SDS011;60641;53.556;9.914;2022-11-25T06:38:23;15.30;;;6.40;;
71606;SDS011;60641;53.556;9.914;2022-11-25T06:40:50;16.10;;;6.10;;
71606;SDS011;60641;53.556;9.914;2022-11-25T06:43:16;16.80;;;6.20;;
71606;SDS011;60641;53.556;9.914;2022-11-25T06:45:43;16.70;;;6.90;;
71606;SDS011;60641;53.556;9.914;2022-11-25T06:48:10;15.50;;;6.50;;
71606;SDS011;60641;53.556;9.914;2022-11-25T06:50:37;14.90;;;6.40;;
71606;SDS011;60641;53.556;9.914;2022-11-25T06:53:04;16.30;;;6.20;;
71606;SDS011;60641;53.556;9.914;2022-11-25T06:55:31;15.90;;;6.50;;
71606;SDS011;60641;53.556;9.914;2022-11-25T06:57:59;15.10;;;6.20;;
71606;SDS011;60641;53.556;9.914;2022-11-25T07:00:25;18.90;;;6.60;;
71606;SDS011;60641;53.556;9.914;2022-11-25T07:02:51;15.60;;;6.60;;
71606;SDS011;60641;53.556;9.914;2022-11-25T07:05:18;16.70;;;5.80;;
71606;SDS011;60641;53.556;9.914;2022-11-25T07:07:44;16.00;;;6.30;;
71606;SDS011;60641;53.556;9.914;2022-11-25T07:10:11;18.60;;;6.60;;
71606;SDS011;60641;53.556;9.914;2022-11-25T07:12:38;15.80;;;6.40;;
71606;SDS011;60641;53.556;9.914;2022-11-25T07:15:04;15.20;;;6.10;;
71606;SDS011;60641;53.556;9.914;2022-11-25T07:17:31;16.00;;;6.50;;
71606;SDS011;60641;53.556;9.914;2022-11-25T07:19:58;16.50;;;6.40;;
71606;SDS011;60641;53.556;9.914;2022-11-25T07:22:24;15.90;;;6.00;;
71606;SDS011;60641;53.556;9.914;2022-11-25T07:24:51;14.50;;;6.00;;
71606;SDS011;60641;53.556;9.914;2022-11-25T07:27:17;15.80;;;6.70;;
71606;SDS011;60641;53.556;9.914;2022-11-25T07:29:44;15.70;;;6.30;;
71606;SDS011;60641;53.556;9.914;2022-11-25T07:32:10;17.10;;;6.30;;
71606;SDS011;60641;53.556;9.914;2022-11-25T07:34:37;14.40;;;5.80;;
71606;SDS011;60641;53.556;9.914;2022-11-25T07:37:03;15.00;;;5.90;;
71606;SDS011;60641;53.556;9.914;2022-11-25T07:39:29;15.90;;;6.10;;
71606;SDS011;60641;53.556;9.914;2022-11-25T07:41:56;14.80;;;5.90;;
71606;SDS011;60641;53.556;9.914;2022-11-25T07:44:23;13.90;;;6.10;;
71606;SDS011;60641;53.556;9.914;2022-11-25T07:46:49;16.30;;;6.00;;
71606;SDS011;60641;53.556;9.914;2022-11-25T07:49:17;12.70;;;5.20;;
71606;SDS011;60641;53.556;9.914;2022-11-25T07:51:49;18.00;;;5.70;;
71606;SDS011;60641;53.556;9.914;2022-11-25T07:54:19;15.40;;;5.40;;
71606;SDS011;60641;53.556;9.914;2022-11-25T07:56:46;12.00;;;4.90;;
71606;SDS011;60641;53.556;9.914;2022-11-25T07:59:14;14.00;;;5.70;;
71606;SDS011;60641;53.556;9.914;2022-11-25T08:01:42;15.70;;;5.30;;
71606;SDS011;60641;53.556;9.914;2022-11-25T08:04:10;18.40;;;5.70;;
71606;SDS011;60641;53.556;9.914;2022-11-25T08:06:38;15.20;;;5.20;;
71606;SDS011;60641;53.556;9.914;2022-11-25T08:09:08;16.00;;;5.30;;
71606;SDS011;60641;53.556;9.914;2022-11-25T08:11:36;18.30;;;5.70;;
71606;SDS011;60641;53.556;9.914;2022-11-25T08:14:03;13.60;;;4.70;;
71606;SDS011;60641;53.556;9.914;2022-11-25T08:16:30;14.70;;;5.70;;
71606;SDS011;60641;53.556;9.914;2022-11-25T08:18:58;17.40;;;5.40;;
71606;SDS011;60641;53.556;9.914;2022-11-25T08:21:26;15.00;;;5.20;;
71606;SDS011;60641;53.556;9.914;2022-11-25T08:23:52;17.20;;;6.00;;
71606;SDS011;60641;53.556;9.914;2022-11-25T08:26:26;11.90;;;4.90;;
71606;SDS011;60641;53.556;9.914;2022-11-25T08:28:57;14.60;;;5.40;;
71606;SDS011;60641;53.556;9.914;2022-11-25T08:31:25;17.00;;;5.60;;
71606;SDS011;60641;53.556;9.914;2022-11-25T08:33:53;15.80;;;5.20;;
71606;SDS011;60641;53.556;9.914;2022-11-25T08:36:20;14.10;;;4.80;;
71606;SDS011;60641;53.556;9.914;2022-11-25T08:38:48;14.50;;;4.80;;
71606;SDS011;60641;53.556;9.914;2022-11-25T08:41:20;10.40;;;4.40;;
71606;SDS011;60641;53.556;9.914;2022-11-25T08:43:49;15.10;;;4.90;;
71606;SDS011;60641;53.556;9.914;2022-11-25T08:46:20;14.50;;;4.10;;
71606;SDS011;60641;53.556;9.914;2022-11-25T08:48:47;13.90;;;5.40;;
71606;SDS011;60641;53.556;9.914;2022-11-25T08:51:16;13.70;;;4.40;;
71606;SDS011;60641;53.556;9.914;2022-11-25T08:53:47;13.90;;;4.70;;
71606;SDS011;60641;53.556;9.914;2022-11-25T08:56:16;12.90;;;4.70;;
71606;SDS011;60641;53.556;9.914;2022-11-25T08:58:43;14.00;;;4.90;;
71606;SDS011;60641;53.556;9.914;2022-11-25T09:01:10;10.80;;;4.30;;
71606;SDS011;60641;53.556;9.914;2022-11-25T09:03:39;12.90;;;4.90;;
71606;SDS011;60641;53.556;9.914;2022-11-25T09:06:07;11.60;;;4.30;;
71606;SDS011;60641;53.556;9.914;2022-11-25T09:08:35;16.50;;;4.90;;
71606;SDS011;60641;53.556;9.914;2022-11-25T09:11:03;13.30;;;4.30;;
71606;SDS011;60641;53.556;9.914;2022-11-25T09:13:29;16.60;;;4.90;;
71606;SDS011;60641;53.556;9.914;2022-11-25T09:15:56;14.70;;;4.80;;
71606;SDS011;60641;53.556;9.914;2022-11-25T09:18:22;20.80;;;5.40;;
71606;SDS011;60641;53.556;9.914;2022-11-25T09:20:55;17.00;;;4.70;;
71606;SDS011;60641;53.556;9.914;2022-11-25T09:23:22;12.90;;;4.50;;
71606;SDS011;60641;53.556;9.914;2022-11-25T09:25:50;13.90;;;4.80;;
71606;SDS011;60641;53.556;9.914;2022-11-25T09:28:21;14.60;;;5.10;;
71606;SDS011;60641;53.556;9.914;2022-11-25T09:30:48;12.70;;;4.30;;
71606;SDS011;60641;53.556;9.914;2022-11-25T09:33:15;14.70;;;5.00;;
71606;SDS011;60641;53.556;9.914;2022-11-25T09:35:42;14.60;;;5.50;;
71606;SDS011;60641;53.556;9.914;2022-11-25T09:38:08;17.40;;;5.80;;
71606;SDS011;60641;53.556;9.914;2022-11-25T09:40:44;13.70;;;4.30;;
71606;SDS011;60641;53.556;9.914;2022-11-25T09:43:25;11.70;;;4.80;;
71606;SDS011;60641;53.556;9.914;2022-11-25T09:54:34;14.20;;;4.60;;
71606;SDS011;60641;53.556;9.914;2022-11-25T10:02:45;15.00;;;5.10;;
71606;SDS011;60641;53.556;9.914;2022-11-25T10:05:26;14.40;;;5.60;;
71606;SDS011;60641;53.556;9.914;2022-11-25T10:07:55;15.60;;;4.80;;
71606;SDS011;60641;53.556;9.914;2022-11-25T10:10:26;14.10;;;4.90;;
71606;SDS011;60641;53.556;9.914;2022-11-25T10:12:56;14.80;;;5.10;;
71606;SDS011;60641;53.556;9.914;2022-11-25T10:15:28;13.00;;;5.00;;
71606;SDS011;60641;53.556;9.914;2022-11-25T10:21:05;13.80;;;4.30;;
71606;SDS011;60641;53.556;9.914;2022-11-25T10:23:34;13.80;;;4.40;;
71606;SDS011;60641;53.556;9.914;2022-11-25T10:26:08;14.40;;;4.50;;
71606;SDS011;60641;53.556;9.914;2022-11-25T10:28:38;12.60;;;4.50;;
71606;SDS011;60641;53.556;9.914;2022-11-25T10:31:15;15.70;;;5.10;;
71606;SDS011;60641;53.556;9.914;2022-11-25T10:33:44;13.80;;;4.50;;
71606;SDS011;60641;53.556;9.914;2022-11-25T10:36:20;14.10;;;4.70;;
71606;SDS011;60641;53.556;9.914;2022-11-25T10:39:03;16.20;;;5.30;;
71606;SDS011;60641;53.556;9.914;2022-11-25T10:44:31;13.60;;;4.70;;
71606;SDS011;60641;53.556;9.914;2022-11-25T10:47:14;17.30;;;4.90;;
71606;SDS011;60641;53.556;9.914;2022-11-25T10:55:33;14.30;;;4.80;;
71606;SDS011;60641;53.556;9.914;2022-11-25T11:01:21;13.10;;;5.50;;
71606;SDS011;60641;53.556;9.914;2022-11-25T11:03:52;13.90;;;4.50;;
71606;SDS011;60641;53.556;9.914;2022-11-25T11:06:44;12.70;;;4.40;;
71606;SDS011;60641;53.556;9.914;2022-11-25T11:12:12;15.70;;;5.00;;
71606;SDS011;60641;53.556;9.914;2022-11-25T11:14:46;12.50;;;5.50;;
71606;SDS011;60641;53.556;9.914;2022-11-25T11:17:21;15.90;;;4.90;;
71606;SDS011;60641;53.556;9.914;2022-11-25T11:20:43;14.10;;;5.80;;
71606;SDS011;60641;53.556;9.914;2022-11-25T11:27:50;14.40;;;5.60;;
71606;SDS011;60641;53.556;9.914;2022-11-25T11:30:17;15.70;;;4.80;;
71606;SDS011;60641;53.556;9.914;2022-11-25T11:35:42;16.70;;;5.10;;
71606;SDS011;60641;53.556;9.914;2022-11-25T11:38:31;14.20;;;5.40;;
71606;SDS011;60641;53.556;9.914;2022-11-25T11:41:10;13.70;;;5.40;;
71606;SDS011;60641;53.556;9.914;2022-11-25T11:52:00;16.90;;;5.80;;
71606;SDS011;60641;53.556;9.914;2022-11-25T11:57:18;17.60;;;5.90;;
71606;SDS011;60641;53.556;9.914;2022-11-25T11:59:55;13.10;;;5.30;;
71606;SDS011;60641;53.556;9.914;2022-11-25T12:05:29;13.30;;;5.40;;
71606;SDS011;60641;53.556;9.914;2022-11-25T12:13:25;13.30;;;5.30;;
71606;SDS011;60641;53.556;9.914;2022-11-25T12:24:05;11.60;;;4.90;;
71606;SDS011;60641;53.556;9.914;2022-11-25T12:29:23;10.50;;;4.50;;
71606;SDS011;60641;53.556;9.914;2022-11-25T12:35:00;14.50;;;5.40;;
71606;SDS011;60641;53.556;9.914;2022-11-25T12:38:20;13.30;;;5.20;;
71606;SDS011;60641;53.556;9.914;2022-11-25T12:40:41;17.20;;;6.80;;
71606;SDS011;60641;53.556;9.914;2022-11-25T12:43:27;36.80;;;20.20;;
71606;SDS011;60641;53.556;9.914;2022-11-25T12:46:06;24.10;;;11.00;;
71606;SDS011;60641;53.556;9.914;2022-11-25T12:48:41;20.90;;;8.90;;
71606;SDS011;60641;53.556;9.914;2022-11-25T12:51:15;15.70;;;5.60;;
71606;SDS011;60641;53.556;9.914;2022-11-25T12:53:58;13.30;;;5.30;;
71606;SDS011;60641;53.556;9.914;2022-11-25T12:57:35;13.60;;;5.20;;
71606;SDS011;60641;53.556;9.914;2022-11-25T13:11:18;16.50;;;4.70;;
71606;SDS011;60641;53.556;9.914;2022-11-25T13:14:20;16.10;;;5.30;;
71606;SDS011;60641;53.556;9.914;2022-11-25T13:16:51;15.20;;;7.00;;
71606;SDS011;60641;53.556;9.914;2022-11-25T13:19:18;21.00;;;10.30;;
71606;SDS011;60641;53.556;9.914;2022-11-25T13:21:58;20.90;;;10.30;;
71606;SDS011;60641;53.556;9.914;2022-11-25T13:24:31;17.10;;;5.90;;
71606;SDS011;60641;53.556;9.914;2022-11-25T13:26:59;17.50;;;5.50;;
71606;SDS011;60641;53.556;9.914;2022-11-25T13:32:00;15.30;;;5.60;;
71606;SDS011;60641;53.556;9.914;2022-11-25T13:34:29;19.90;;;6.20;;
71606;SDS011;60641;53.556;9.914;2022-11-25T13:36:57;14.50;;;5.50;;
71606;SDS011;60641;53.556;9.914;2022-11-25T13:42:02;15.50;;;5.50;;
71606;SDS011;60641;53.556;9.914;2022-11-25T13:44:47;15.30;;;6.20;;
71606;SDS011;60641;53.556;9.914;2022-11-25T13:47:37;17.50;;;6.30;;
71606;SDS011;60641;53.556;9.914;2022-11-25T13:52:48;19.30;;;6.20;;
71606;SDS011;60641;53.556;9.914;2022-11-25T13:58:04;16.70;;;5.70;;
71606;SDS011;60641;53.556;9.914;2022-11-25T14:00:43;18.00;;;5.80;;
71606;SDS011;60641;53.556;9.914;2022-11-25T14:05:57;18.50;;;5.80;;
71606;SDS011;60641;53.556;9.914;2022-11-25T14:08:28;15.00;;;4.80;;
71606;SDS011;60641;53.556;9.914;2022-11-25T14:27:35;14.10;;;6.10;;
71606;SDS011;60641;53.556;9.914;2022-11-25T14:30:06;16.50;;;5.70;;
71606;SDS011;60641;53.556;9.914;2022-11-25T14:32:51;15.90;;;4.90;;
71606;SDS011;60641;53.556;9.914;2022-11-25T14:35:37;17.20;;;5.50;;
71606;SDS011;60641;53.556;9.914;2022-11-25T14:38:07;16.00;;;5.50;;
71606;SDS011;60641;53.556;9.914;2022-11-25T14:40:52;14.60;;;3.60;;
71606;SDS011;60641;53.556;9.914;2022-11-25T14:43:42;23.60;;;4.90;;
71606;SDS011;60641;53.556;9.914;2022-11-25T14:48:40;15.90;;;4.90;;
71606;SDS011;60641;53.556;9.914;2022-11-25T14:51:09;16.50;;;5.10;;
71606;SDS011;60641;53.556;9.914;2022-11-25T14:53:37;15.50;;;4.50;;
71606;SDS011;60641;53.556;9.914;2022-11-25T14:56:08;16.00;;;4.30;;
71606;SDS011;60641;53.556;9.914;2022-11-25T14:58:38;13.80;;;4.30;;
71606;SDS011;60641;53.556;9.914;2022-11-25T15:01:08;14.10;;;5.00;;
71606;SDS011;60641;53.556;9.914;2022-11-25T15:03:47;18.40;;;4.50;;
71606;SDS011;60641;53.556;9.914;2022-11-25T15:06:14;17.80;;;5.00;;
71606;SDS011;60641;53.556;9.914;2022-11-25T15:08:42;23.60;;;4.60;;
71606;SDS011;60641;53.556;9.914;2022-11-25T15:11:12;14.10;;;4.50;;
71606;SDS011;60641;53.556;9.914;2022-11-25T15:13:41;13.10;;;7.70;;
71606;SDS011;60641;53.556;9.914;2022-11-25T15:18:48;18.80;;;5.30;;
71606;SDS011;60641;53.556;9.914;2022-11-25T15:21:23;16.40;;;5.90;;
71606;SDS011;60641;53.556;9.914;2022-11-25T15:23:53;14.50;;;5.20;;
71606;SDS011;60641;53.556;9.914;2022-11-25T15:26:21;14.30;;;5.40;;
71606;SDS011;60641;53.556;9.914;2022-11-25T15:28:56;14.00;;;4.90;;
71606;SDS011;60641;53.556;9.914;2022-11-25T15:31:25;14.80;;;5.40;;
71606;SDS011;60641;53.556;9.914;2022-11-25T15:33:55;15.40;;;5.10;;
71606;SDS011;60641;53.556;9.914;2022-11-25T15:36:24;13.50;;;5.00;;
71606;SDS011;60641;53.556;9.914;2022-11-25T15:38:51;13.90;;;5.50;;
71606;SDS011;60641;53.556;9.914;2022-11-25T15:44:03;17.30;;;5.40;;
71606;SDS011;60641;53.556;9.914;2022-11-25T15:46:31;16.50;;;5.70;;
71606;SDS011;60641;53.556;9.914;2022-11-25T15:49:00;18.30;;;6.00;;
71606;SDS011;60641;53.556;9.914;2022-11-25T15:51:30;17.00;;;6.40;;
71606;SDS011;60641;53.556;9.914;2022-11-25T15:56:41;19.80;;;7.80;;
71606;SDS011;60641;53.556;9.914;2022-11-25T16:07:40;20.10;;;6.30;;
71606;SDS011;60641;53.556;9.914;2022-11-25T16:10:20;19.30;;;6.10;;
71606;SDS011;60641;53.556;9.914;2022-11-25T16:18:29;18.10;;;5.80;;
71606;SDS011;60641;53.556;9.914;2022-11-25T16:20:58;15.30;;;5.50;;
71606;SDS011;60641;53.556;9.914;2022-11-25T16:23:27;15.30;;;6.20;;
71606;SDS011;60641;53.556;9.914;2022-11-25T16:26:00;13.40;;;5.40;;
71606;SDS011;60641;53.556;9.914;2022-11-25T16:28:27;12.30;;;5.90;;
71606;SDS011;60641;53.556;9.914;2022-11-25T16:30:54;16.10;;;6.10;;
71606;SDS011;60641;53.556;9.914;2022-11-25T16:33:23;18.30;;;6.20;;
71606;SDS011;60641;53.556;9.914;2022-11-25T16:35:50;16.10;;;5.60;;
71606;SDS011;60641;53.556;9.914;2022-11-25T16:38:17;13.90;;;5.80;;
71606;SDS011;60641;53.556;9.914;2022-11-25T16:40:44;15.30;;;5.90;;
71606;SDS011;60641;53.556;9.914;2022-11-25T16:43:21;15.00;;;5.90;;
71606;SDS011;60641;53.556;9.914;2022-11-25T16:45:51;12.60;;;5.50;;
71606;SDS011;60641;53.556;9.914;2022-11-25T16:48:19;13.70;;;6.00;;
71606;SDS011;60641;53.556;9.914;2022-11-25T16:50:47;18.10;;;6.10;;
71606;SDS011;60641;53.556;9.914;2022-11-25T16:53:14;15.50;;;6.80;;
71606;SDS011;60641;53.556;9.914;2022-11-25T16:55:42;17.40;;;6.70;;
71606;SDS011;60641;53.556;9.914;2022-11-25T16:58:17;15.90;;;6.40;;
71606;SDS011;60641;53.556;9.914;2022-11-25T17:00:49;17.70;;;6.80;;
71606;SDS011;60641;53.556;9.914;2022-11-25T17:03:18;17.00;;;6.90;;
71606;SDS011;60641;53.556;9.914;2022-11-25T17:05:45;23.30;;;7.50;;
71606;SDS011;60641;53.556;9.914;2022-11-25T17:08:12;16.60;;;7.50;;